Time;durP1;ratioP1;P1;durP2;ratioP2;P2;SDS_P1;SDS_P2;PMS_P1;PMS_P2;Temp;Humidity;BMP_temperature;BMP_pressure;BME280_temperature;BME280_humidity;BME280_pressure;Samples;Min_cycle;Max_cycle;Signal;HPM_P1;HPM_P2
2022/06/25 00:01:32;;;;;;;7.05;4.20;;;;;;;18.31;60.12;99938.06;1741517;80;21575;-75
2022/06/25 00:04:00;;;;;;;4.30;3.80;;;;;;;18.32;60.32;99936.24;1753053;80;21537;-75
2022/06/25 00:06:27;;;;;;;5.33;3.95;;;;;;;18.34;60.36;99935.66;1741548;80;21559;-75
2022/06/25 00:08:55;;;;;;;4.25;3.85;;;;;;;18.36;60.40;99937.23;1741740;80;21072;-75
2022/06/25 00:14:12;;;;;;;4.03;3.65;;;;;;;18.48;60.37;99929.67;1770294;80;21493;-75
2022/06/25 00:16:39;;;;;;;4.40;3.95;;;;;;;18.58;60.29;99920.98;1766051;80;21033;-75
2022/06/25 00:19:06;;;;;;;5.78;4.15;;;;;;;18.68;60.06;99920.63;1744550;80;21055;-75
2022/06/25 00:21:33;;;;;;;5.80;3.60;;;;;;;18.76;60.08;99924.02;1766678;80;21096;-76
2022/06/25 00:24:02;;;;;;;4.75;4.08;;;;;;;18.77;59.88;99919.94;1776766;80;21520;-75
2022/06/25 00:26:29;;;;;;;5.60;3.60;;;;;;;18.75;59.67;99923.67;1734527;81;21452;-76
2022/06/25 00:28:56;;;;;;;8.15;4.45;;;;;;;18.72;59.79;99926.89;1727879;81;21003;-75
2022/06/25 00:31:24;;;;;;;4.85;4.22;;;;;;;18.77;59.93;99923.08;1727695;81;21014;-75
2022/06/25 00:33:51;;;;;;;5.53;4.25;;;;;;;18.82;59.94;99923.56;1727545;81;21932;-76
2022/06/25 00:36:19;;;;;;;4.17;3.77;;;;;;;18.87;60.00;99927.54;1742624;81;21049;-76
2022/06/25 00:38:47;;;;;;;5.35;4.30;;;;;;;18.93;60.03;99924.39;1735485;81;21069;-75
2022/06/25 00:41:14;;;;;;;4.75;3.95;;;;;;;18.97;59.77;99926.80;1729183;81;21077;-76
2022/06/25 00:43:42;;;;;;;5.28;3.47;;;;;;;18.97;59.62;99929.45;1760495;80;21034;-75
2022/06/25 00:46:09;;;;;;;5.80;4.08;;;;;;;18.97;59.62;99932.95;1745385;81;21087;-75
2022/06/25 00:48:38;;;;;;;6.22;3.87;;;;;;;19.01;59.52;99929.10;1728099;81;20999;-75
2022/06/25 00:51:13;;;;;;;6.90;4.25;;;;;;;19.07;59.53;99929.09;1727973;81;21445;-75
2022/06/25 00:53:44;;;;;;;8.28;3.87;;;;;;;19.14;59.39;99935.09;1727723;81;21015;-75
2022/06/25 00:56:14;;;;;;;7.35;4.05;;;;;;;19.20;59.26;99935.09;1727974;81;21038;-76
2022/06/25 00:58:43;;;;;;;;;;;;;;;19.27;59.50;99941.61;1739590;81;21269;-75
2022/06/25 01:01:12;;;;;;;7.00;3.85;;;;;;;19.35;59.58;99938.34;1748217;81;20173;-75
2022/06/25 01:03:41;;;;;;;4.97;3.67;;;;;;;19.39;59.42;99939.28;1743088;81;21031;-76
2022/06/25 01:06:08;;;;;;;4.20;3.80;;;;;;;19.43;59.31;99928.39;1744326;81;21005;-75
2022/06/25 01:08:36;;;;;;;4.12;3.72;;;;;;;19.47;59.37;99920.55;1731966;81;21040;-76
2022/06/25 01:11:04;;;;;;;4.72;4.10;;;;;;;19.51;59.76;99928.16;1727886;81;21820;-76
2022/06/25 01:13:32;;;;;;;6.58;4.03;;;;;;;19.54;59.94;99933.22;1727837;81;21033;-76
2022/06/25 01:16:00;;;;;;;6.15;3.90;;;;;;;19.56;60.09;99933.07;1734562;81;21005;-76
2022/06/25 01:18:27;;;;;;;6.65;4.47;;;;;;;19.55;59.94;99936.22;1735053;81;20979;-76
2022/06/25 01:20:55;;;;;;;5.67;4.00;;;;;;;19.55;60.00;99929.58;1752082;81;20991;-76
2022/06/25 01:23:23;;;;;;;4.42;4.03;;;;;;;19.55;60.17;99916.78;1757978;80;21085;-75
2022/06/25 01:25:50;;;;;;;5.30;4.12;;;;;;;19.53;60.28;99916.05;1745152;81;21058;-75
2022/06/25 01:28:18;;;;;;;6.22;3.72;;;;;;;19.51;60.47;99915.32;1741627;80;21098;-77
2022/06/25 01:30:45;;;;;;;6.70;4.05;;;;;;;19.44;60.53;99910.17;1760182;80;21675;-75
2022/06/25 01:33:12;;;;;;;5.03;3.75;;;;;;;19.40;60.77;99918.88;1768852;80;21557;-75
2022/06/25 01:35:42;;;;;;;3.90;3.60;;;;;;;19.36;60.85;99927.56;1741931;80;21052;-76
2022/06/25 01:38:09;;;;;;;4.05;3.72;;;;;;;19.32;60.61;99926.14;1750483;80;21045;-75
2022/06/25 01:40:38;;;;;;;5.10;4.08;;;;;;;19.30;60.69;99910.80;1782932;80;20994;-75
2022/06/25 01:43:05;;;;;;;4.92;4.42;;;;;;;19.29;60.92;99904.30;1748981;81;21531;-76
2022/06/25 01:45:38;;;;;;;5.65;4.45;;;;;;;19.32;61.10;99907.55;1714702;82;21027;-76
2022/06/25 01:48:07;;;;;;;6.17;4.20;;;;;;;19.37;61.25;99921.30;1724365;83;22049;-75
2022/06/25 01:50:36;;;;;;;5.37;4.33;;;;;;;19.37;61.21;99917.32;1731556;81;21068;-75
2022/06/25 01:53:05;;;;;;;5.92;4.00;;;;;;;19.32;61.11;99919.50;1724797;81;20993;-75
2022/06/25 01:55:33;;;;;;;5.62;3.85;;;;;;;19.31;61.13;99918.28;1729239;82;21016;-75
2022/06/25 01:58:00;;;;;;;4.97;4.37;;;;;;;19.27;61.29;99921.69;1754401;81;21048;-75
2022/06/25 02:00:31;;;;;;;4.95;4.00;;;;;;;19.23;61.48;99917.56;1686696;83;21144;-75
2022/06/25 02:03:01;;;;;;;4.08;3.67;;;;;;;19.23;61.66;99913.58;1725304;82;22192;-76
2022/06/25 02:08:18;;;;;;;7.17;4.25;;;;;;;19.20;61.97;99905.86;1736895;81;21052;-75
2022/06/25 02:10:47;;;;;;;5.97;4.55;;;;;;;19.21;62.66;99904.08;1736922;81;21028;-76
2022/06/25 02:13:15;;;;;;;5.63;4.20;;;;;;;19.22;63.00;99901.77;1737146;81;21102;-75
2022/06/25 02:15:42;;;;;;;4.53;4.00;;;;;;;19.19;62.83;99908.66;1734774;81;21105;-76
2022/06/25 02:18:11;;;;;;;6.70;4.37;;;;;;;19.21;62.89;99929.31;1735932;82;21103;-75
2022/06/25 02:20:41;;;;;;;5.87;4.20;;;;;;;19.21;62.84;99925.33;1733668;81;21038;-76
2022/06/25 02:23:10;;;;;;;7.58;4.25;;;;;;;19.19;62.64;99930.75;1736368;81;21350;-75
2022/06/25 02:25:38;;;;;;;4.65;4.15;;;;;;;19.15;62.47;99935.97;1731806;81;21292;-75
2022/06/25 02:28:07;;;;;;;4.90;4.40;;;;;;;19.11;62.54;99945.97;1722641;81;20995;-75
2022/06/25 02:30:35;;;;;;;5.10;3.98;;;;;;;19.10;62.62;99942.97;1727705;81;21063;-75
2022/06/25 02:33:03;;;;;;;9.93;4.20;;;;;;;19.11;62.67;99942.48;1729288;82;21067;-76
2022/06/25 02:35:31;;;;;;;5.37;4.15;;;;;;;19.10;62.83;99940.80;1715453;81;21575;-76
2022/06/25 02:38:00;;;;;;;4.80;4.10;;;;;;;19.09;63.06;99939.09;1728703;82;21123;-76
2022/06/25 02:40:29;;;;;;;4.62;4.20;;;;;;;19.10;63.16;99948.28;1729167;81;20993;-76
2022/06/25 02:42:56;;;;;;;7.20;4.25;;;;;;;19.10;63.14;99947.44;1724725;81;21456;-75
2022/06/25 02:45:25;;;;;;;5.97;4.10;;;;;;;19.10;63.45;99950.09;1731867;82;20988;-75
2022/06/25 02:47:53;;;;;;;5.37;4.10;;;;;;;19.08;63.54;99952.86;1736012;81;21106;-75
2022/06/25 02:50:22;;;;;;;5.17;4.20;;;;;;;19.09;63.67;99963.87;1731622;81;21105;-75
2022/06/25 02:52:49;;;;;;;4.90;4.40;;;;;;;19.10;63.54;99963.37;1732935;81;21018;-76
2022/06/25 02:55:18;;;;;;;4.60;3.77;;;;;;;19.11;63.67;99961.07;1724966;81;21549;-77
2022/06/25 03:00:35;;;;;;;6.97;3.90;;;;;;;19.10;63.65;99972.67;1736603;82;21228;-76
2022/06/25 03:03:02;;;;;;;7.97;3.87;;;;;;;19.12;63.73;99974.70;1728010;81;21102;-75
2022/06/25 03:05:30;;;;;;;5.33;3.87;;;;;;;19.10;63.83;99976.17;1736643;82;21107;-76
2022/06/25 03:07:57;;;;;;;5.60;4.22;;;;;;;19.08;63.89;99977.26;1736536;81;21042;-76
2022/06/25 03:10:25;;;;;;;4.90;3.70;;;;;;;19.07;63.86;99985.72;1736749;81;20981;-75
2022/06/25 03:12:53;;;;;;;4.90;4.12;;;;;;;19.07;64.04;99988.38;1736481;81;21519;-75
2022/06/25 03:15:22;;;;;;;6.00;4.28;;;;;;;19.10;64.17;99988.61;1724909;81;21201;-75
2022/06/25 03:17:49;;;;;;;6.00;4.20;;;;;;;19.14;64.41;99994.03;1731630;82;21567;-75
2022/06/25 03:20:34;;;;;;;5.15;4.33;;;;;;;19.15;64.67;100001.05;1652866;86;21069;-76
2022/06/25 03:23:03;;;;;;;7.67;4.03;;;;;;;19.17;64.93;100004.41;1702486;81;21534;-75
2022/06/25 03:25:31;;;;;;;4.50;4.10;;;;;;;19.17;65.14;100005.73;1735714;82;21362;-76
2022/06/25 03:28:00;;;;;;;5.35;4.28;;;;;;;19.17;65.30;100014.55;1767745;79;21788;-75
2022/06/25 03:30:28;;;;;;;5.90;4.60;;;;;;;19.20;65.34;100011.30;1780965;80;21017;-76
2022/06/25 03:32:55;;;;;;;5.20;4.03;;;;;;;19.22;65.46;100007.55;1781449;80;21025;-75
2022/06/25 03:35:24;;;;;;;5.35;4.30;;;;;;;19.26;65.86;100007.69;1778270;80;21516;-75
2022/06/25 03:37:58;;;;;;;7.60;4.62;;;;;;;19.30;65.98;100033.52;1769824;80;21002;-76
2022/06/25 03:40:27;;;;;;;5.87;4.55;;;;;;;19.34;66.47;100022.54;1766567;80;21826;-76
2022/06/25 03:42:54;;;;;;;5.87;4.90;;;;;;;19.36;66.73;100019.74;1773240;80;21025;-76
2022/06/25 03:45:21;;;;;;;14.95;5.65;;;;;;;19.35;67.10;100018.06;1760469;80;21543;-75
2022/06/25 03:47:52;;;;;;;6.67;4.60;;;;;;;19.32;67.26;100027.61;1777600;80;20982;-76
2022/06/25 03:50:21;;;;;;;7.70;5.00;;;;;;;19.27;67.33;100020.00;1780988;80;21069;-75
2022/06/25 03:52:51;;;;;;;5.72;4.42;;;;;;;19.22;67.53;100015.52;1781241;80;21091;-78
2022/06/25 03:55:18;;;;;;;8.95;4.80;;;;;;;19.22;67.91;100014.69;1763251;80;21531;-77
2022/06/25 03:57:46;;;;;;;8.05;4.67;;;;;;;19.19;68.20;100015.77;1768700;80;21022;-76
2022/06/25 04:00:15;;;;;;;4.78;4.28;;;;;;;19.15;67.96;100019.65;1781100;80;21333;-75
2022/06/25 04:02:44;;;;;;;7.67;4.50;;;;;;;19.12;68.10;100018.08;1781232;80;21526;-76
2022/06/25 04:05:30;;;;;;;9.48;4.60;;;;;;;19.07;68.18;100010.95;1781117;80;21066;-76
2022/06/25 04:08:17;;;;;;;9.08;3.95;;;;;;;19.03;68.24;100013.95;1748939;80;21568;-76
2022/06/25 04:10:45;;;;;;;5.75;4.33;;;;;;;19.01;68.20;100011.44;1781029;80;21025;-76
2022/06/25 04:13:13;;;;;;;5.70;4.00;;;;;;;19.01;68.08;100013.22;1781007;80;21045;-76
2022/06/25 04:15:41;;;;;;;6.78;4.00;;;;;;;18.98;68.26;100006.34;1781369;80;21323;-76
2022/06/25 04:18:09;;;;;;;5.62;4.03;;;;;;;18.99;68.28;100011.20;1758288;80;21081;-75
2022/06/25 04:20:37;;;;;;;4.85;4.35;;;;;;;18.99;68.29;100020.48;1781355;80;21113;-76
2022/06/25 04:23:04;;;;;;;5.47;4.50;;;;;;;19.04;68.57;100020.95;1781287;80;21038;-76
2022/06/25 04:25:32;;;;;;;4.70;4.25;;;;;;;19.07;68.85;100024.23;1766474;80;21014;-76
2022/06/25 04:30:38;;;;;;;5.47;4.17;;;;;;;19.15;68.77;100038.25;1722565;80;21223;-76
2022/06/25 04:33:06;;;;;;;6.75;4.62;;;;;;;19.20;68.59;100040.52;1760698;80;21032;-76
2022/06/25 04:35:35;;;;;;;5.37;4.08;;;;;;;19.24;68.52;100037.52;1760221;80;20992;-76
2022/06/25 04:38:04;;;;;;;4.50;3.87;;;;;;;19.29;68.47;100038.48;1760175;80;21020;-75
2022/06/25 04:40:32;;;;;;;4.28;3.87;;;;;;;19.32;68.45;100039.57;1760599;80;21039;-78
2022/06/25 04:43:00;;;;;;;4.37;3.92;;;;;;;19.34;68.04;100037.16;1750658;81;21096;-76
2022/06/25 04:45:28;;;;;;;6.25;4.00;;;;;;;19.38;67.92;100040.41;1760360;80;21012;-75
2022/06/25 04:48:09;;;;;;;4.83;4.22;;;;;;;19.41;67.93;100041.98;1732931;80;21467;-77
2022/06/25 04:50:44;;;;;;;3.95;3.55;;;;;;;19.42;67.93;100044.49;1746569;80;21056;-77
2022/06/25 04:53:13;;;;;;;7.53;4.25;;;;;;;19.45;68.33;100045.58;1754521;80;21021;-77
2022/06/25 04:55:42;;;;;;;6.15;4.17;;;;;;;19.50;68.81;100050.53;1759008;80;21217;-76
2022/06/25 04:58:10;;;;;;;5.25;4.00;;;;;;;19.48;68.72;100041.38;1748931;80;21558;-77
2022/06/25 05:00:43;;;;;;;5.25;4.20;;;;;;;19.47;68.50;100046.80;1758977;80;21001;-77
2022/06/25 05:03:11;;;;;;;4.53;4.05;;;;;;;19.49;68.35;100044.37;1757227;80;21614;-77
2022/06/25 05:05:40;;;;;;;5.22;4.03;;;;;;;19.52;68.26;100040.63;1752795;80;21016;-77
2022/06/25 05:08:10;;;;;;;5.80;3.70;;;;;;;19.57;68.08;100043.77;1757556;80;21088;-77
2022/06/25 05:10:37;;;;;;;6.22;4.30;;;;;;;19.60;68.42;100046.18;1754427;80;21024;-77
2022/06/25 05:13:14;;;;;;;6.85;4.58;;;;;;;19.64;68.41;100044.95;1759715;80;21517;-76
2022/06/25 05:15:43;;;;;;;6.25;4.58;;;;;;;19.67;68.60;100044.73;1756355;80;21041;-78
2022/06/25 05:18:13;;;;;;;5.22;4.65;;;;;;;19.72;68.62;100041.22;1760213;80;21001;-77
2022/06/25 05:20:43;;;;;;;5.00;4.60;;;;;;;19.78;68.46;100046.53;1759030;80;21108;-77
2022/06/25 05:23:12;;;;;;;6.62;4.30;;;;;;;19.84;68.45;100039.38;1747703;81;21147;-77
2022/06/25 05:25:41;;;;;;;6.08;4.60;;;;;;;19.89;68.24;100041.67;1746847;80;21103;-77
2022/06/25 05:28:09;;;;;;;6.15;4.28;;;;;;;19.94;68.38;100041.66;1765508;80;20986;-77
2022/06/25 05:30:36;;;;;;;5.37;4.75;;;;;;;20.01;68.64;100039.35;1773903;79;21053;-77
2022/06/25 05:33:03;;;;;;;7.53;5.15;;;;;;;20.07;68.62;100041.99;1776608;79;21118;-77
2022/06/25 05:35:31;;;;;;;4.75;4.33;;;;;;;20.12;68.56;100039.31;1779966;79;21084;-77
2022/06/25 05:37:59;;;;;;;8.15;4.58;;;;;;;20.21;68.38;100048.34;1774709;79;21002;-77
2022/06/25 05:40:26;;;;;;;8.38;5.30;;;;;;;20.29;68.36;100053.87;1766984;79;21497;-75
2022/06/25 05:42:54;;;;;;;5.33;4.83;;;;;;;20.37;68.39;100046.55;1777328;79;21302;-76
2022/06/25 05:45:21;;;;;;;6.15;5.10;;;;;;;20.47;68.25;100047.48;1782350;79;21121;-76
2022/06/25 05:47:48;;;;;;;8.50;4.78;;;;;;;20.58;68.01;100043.46;1776170;79;21468;-77
2022/06/25 05:50:16;;;;;;;5.45;4.70;;;;;;;20.71;67.76;100052.59;1781880;79;21512;-76
2022/06/25 05:52:43;;;;;;;5.70;4.60;;;;;;;20.85;67.57;100048.76;1781867;79;21105;-75
2022/06/25 05:55:10;;;;;;;6.25;4.40;;;;;;;21.01;67.50;100052.29;1783900;80;21010;-76
2022/06/25 05:57:37;;;;;;;8.83;5.20;;;;;;;21.14;67.36;100051.09;1783329;80;22040;-77
2022/06/25 06:00:08;;;;;;;5.05;4.37;;;;;;;21.28;66.97;100050.36;1777640;79;21060;-77
2022/06/25 06:02:41;;;;;;;6.62;4.28;;;;;;;21.38;66.52;100049.45;1777654;79;20998;-82
2022/06/25 06:05:09;;;;;;;5.87;4.20;;;;;;;21.51;66.19;100054.56;1776736;79;21272;-81
2022/06/25 06:07:37;;;;;;;4.90;3.92;;;;;;;21.64;65.94;100053.46;1783549;80;21285;-78
2022/06/25 06:10:06;;;;;;;9.93;4.40;;;;;;;21.75;65.80;100052.02;1779952;79;21509;-77
2022/06/25 06:12:33;;;;;;;9.50;3.65;;;;;;;21.87;65.35;100061.60;1777868;79;20967;-77
2022/06/25 06:15:00;;;;;;;5.10;3.08;;;;;;;21.99;64.70;100064.98;1781585;80;21022;-77
2022/06/25 06:17:27;;;;;;;4.90;3.40;;;;;;;22.10;64.30;100069.36;1777723;79;20995;-80
2022/06/25 06:19:55;;;;;;;4.20;3.52;;;;;;;22.21;64.00;100078.09;1782273;80;21468;-82
2022/06/25 06:22:22;;;;;;;7.50;3.67;;;;;;;22.31;63.44;100072.78;1782553;80;22159;-79
2022/06/25 06:24:49;;;;;;;6.05;3.45;;;;;;;22.41;63.30;100072.27;1779616;79;21002;-77
2022/06/25 06:27:16;;;;;;;5.20;3.15;;;;;;;22.54;62.97;100073.83;1782305;80;21503;-77
2022/06/25 06:29:44;;;;;;;5.12;3.42;;;;;;;22.61;62.22;100073.59;1788271;80;21021;-77
2022/06/25 06:32:11;;;;;;;4.55;3.35;;;;;;;22.63;61.75;100077.80;1782625;78;21041;-77
2022/06/25 06:34:39;;;;;;;5.37;3.55;;;;;;;22.63;61.47;100074.30;1782972;78;21105;-78
2022/06/25 06:37:06;;;;;;;5.53;3.25;;;;;;;22.65;61.40;100079.84;1786812;80;21528;-78
2022/06/25 06:39:33;;;;;;;6.20;3.35;;;;;;;22.66;61.04;100086.03;1782719;78;21065;-78
2022/06/25 06:42:01;;;;;;;8.08;3.20;;;;;;;22.69;61.00;100089.75;1756526;80;21030;-78
2022/06/25 06:44:28;;;;;;;5.83;3.05;;;;;;;22.70;60.76;100097.64;1780840;78;21029;-79
2022/06/25 06:46:56;;;;;;;6.55;3.30;;;;;;;22.72;60.67;100100.15;1731456;82;21124;-79
2022/06/25 06:49:23;;;;;;;9.23;5.60;;;;;;;22.79;60.78;100105.78;1740296;82;21034;-79
2022/06/25 06:51:50;;;;;;;6.37;4.40;;;;;;;22.88;60.61;100112.94;1736096;82;21030;-78
2022/06/25 06:54:18;;;;;;;4.35;3.42;;;;;;;22.95;60.45;100112.72;1735431;82;21547;-78
2022/06/25 06:56:45;;;;;;;5.42;3.80;;;;;;;23.08;60.51;100109.75;1733221;81;21100;-77
2022/06/25 06:59:12;;;;;;;5.78;3.98;;;;;;;23.18;60.21;100113.25;1746932;81;21127;-78
2022/06/25 07:01:41;;;;;;;4.67;3.25;;;;;;;23.26;59.90;100113.38;1753550;80;21112;-78
2022/06/25 07:04:08;;;;;;;3.22;2.65;;;;;;;23.30;59.62;100116.59;1723104;81;21037;-77
2022/06/25 07:06:35;;;;;;;3.02;2.40;;;;;;;23.31;59.17;100113.78;1747628;81;21090;-77
2022/06/25 07:09:03;;;;;;;4.58;2.60;;;;;;;23.29;58.71;100113.58;1730983;81;21283;-82
2022/06/25 07:11:31;;;;;;;3.40;2.70;;;;;;;23.27;58.52;100113.71;1714575;81;21118;-78
2022/06/25 07:14:02;;;;;;;3.33;2.80;;;;;;;23.28;58.44;100116.75;1729977;82;21464;-78
2022/06/25 07:16:31;;;;;;;3.08;2.77;;;;;;;23.33;58.58;100124.31;1711519;83;21037;-77
2022/06/25 07:19:01;;;;;;;5.00;3.15;;;;;;;23.37;58.75;100114.53;1736566;82;21548;-78
2022/06/25 07:21:29;;;;;;;6.45;3.80;;;;;;;23.43;58.49;100119.79;1741256;82;21018;-77
2022/06/25 07:23:57;;;;;;;8.18;5.05;;;;;;;23.49;58.41;100119.70;1714135;82;21100;-78
2022/06/25 07:26:25;;;;;;;10.70;7.15;;;;;;;23.56;58.44;100116.29;1728758;82;21014;-80
2022/06/25 07:28:53;;;;;;;6.50;4.97;;;;;;;23.61;58.08;100114.49;1717043;81;21022;-82
2022/06/25 07:31:21;;;;;;;7.03;4.90;;;;;;;23.66;57.86;100116.73;1725195;82;21075;-84
2022/06/25 07:33:50;;;;;;;4.47;2.85;;;;;;;23.70;57.68;100112.28;1715644;82;21006;-79
2022/06/25 07:36:17;;;;;;;4.25;2.95;;;;;;;23.76;57.54;100109.54;1726897;82;21130;-78
2022/06/25 07:38:45;;;;;;;2.10;1.90;;;;;;;23.85;57.17;100115.33;1705901;81;20953;-79
2022/06/25 07:41:13;;;;;;;3.65;2.12;;;;;;;23.96;57.02;100113.78;1734081;82;21501;-78
2022/06/25 07:43:40;;;;;;;2.25;2.05;;;;;;;24.04;56.59;100115.71;1736064;81;21046;-78
2022/06/25 07:46:07;;;;;;;5.25;2.30;;;;;;;24.06;56.29;100119.09;1710635;82;21554;-85
2022/06/25 07:48:34;;;;;;;3.98;2.40;;;;;;;24.12;56.36;100116.30;1736540;81;21090;-84
2022/06/25 07:53:47;;;;;;;6.22;2.95;;;;;;;24.25;56.01;100125.66;1725328;82;20998;-78
2022/06/25 07:56:14;;;;;;;4.55;2.50;;;;;;;24.27;55.98;100118.28;1729891;81;21003;-80
2022/06/25 07:58:42;;;;;;;4.53;2.47;;;;;;;24.35;55.95;100114.02;1727130;81;21065;-85
2022/06/25 08:01:09;;;;;;;7.55;3.08;;;;;;;24.43;55.75;100117.64;1736442;82;21952;-81
2022/06/25 08:03:36;;;;;;;3.25;2.17;;;;;;;24.47;55.56;100115.49;1729738;81;21052;-80
2022/06/25 08:06:04;;;;;;;4.08;2.40;;;;;;;24.54;55.38;100115.73;1734879;82;21034;-80
2022/06/25 08:08:32;;;;;;;4.20;2.37;;;;;;;24.54;54.90;100115.23;1729598;81;21537;-81
2022/06/25 08:10:59;;;;;;;5.67;2.40;;;;;;;24.57;55.13;100121.62;1722584;82;20991;-81
2022/06/25 08:13:27;;;;;;;4.95;2.42;;;;;;;24.63;55.05;100121.50;1735056;82;21095;-77
2022/06/25 08:15:55;;;;;;;6.40;2.62;;;;;;;24.75;55.27;100116.27;1736512;82;21437;-77
2022/06/25 08:18:22;;;;;;;3.85;2.42;;;;;;;24.92;55.16;100114.55;1732366;82;21094;-77
2022/06/25 08:20:50;;;;;;;31.55;11.63;;;;;;;25.10;55.21;100117.17;1718265;82;21552;-77
2022/06/25 08:23:17;;;;;;;7.58;3.72;;;;;;;25.22;55.06;100116.42;1736688;82;20991;-78
2022/06/25 08:25:45;;;;;;;7.28;3.33;;;;;;;25.33;55.06;100114.81;1736401;82;21816;-76
2022/06/25 08:28:12;;;;;;;7.17;3.30;;;;;;;25.51;55.14;100116.94;1716347;81;21046;-79
2022/06/25 08:30:42;;;;;;;3.72;2.22;;;;;;;25.68;54.74;100115.67;1719187;83;21055;-80
2022/06/25 08:33:09;;;;;;;4.58;2.67;;;;;;;25.75;54.38;100121.58;1721874;83;26457;-78
2022/06/25 08:35:36;;;;;;;4.67;2.58;;;;;;;25.82;53.69;100117.73;1770921;81;21010;-78
2022/06/25 08:38:04;;;;;;;5.87;3.45;;;;;;;25.85;53.56;100116.60;1771231;81;21179;-78
2022/06/25 08:40:31;;;;;;;4.65;2.60;;;;;;;25.95;53.64;100116.80;1770807;80;21038;-78
2022/06/25 08:43:00;;;;;;;4.22;2.47;;;;;;;26.03;53.24;100118.17;1770850;80;20976;-78
2022/06/25 08:45:27;;;;;;;5.70;3.12;;;;;;;26.12;52.83;100116.86;1770895;81;20987;-78
2022/06/25 08:47:59;;;;;;;5.25;2.22;;;;;;;26.24;52.88;100123.11;1771258;81;20987;-77
2022/06/25 08:50:27;;;;;;;3.00;2.20;;;;;;;26.34;52.40;100120.25;1770975;80;21473;-80
2022/06/25 08:52:56;;;;;;;2.98;2.02;;;;;;;26.39;51.92;100122.45;1771033;80;21015;-79
2022/06/25 08:55:33;;;;;;;4.85;2.45;;;;;;;26.43;52.03;100117.06;1770921;81;20983;-78
2022/06/25 08:58:02;;;;;;;4.28;2.50;;;;;;;26.51;51.89;100127.86;1771251;80;21479;-79
2022/06/25 09:00:32;;;;;;;3.85;2.47;;;;;;;26.58;51.45;100129.39;1760818;80;21558;-78
2022/06/25 09:03:00;;;;;;;3.58;2.17;;;;;;;26.66;51.41;100126.20;1765699;81;21926;-79
2022/06/25 09:05:33;;;;;;;4.78;2.30;;;;;;;26.81;51.29;100132.25;1770910;80;21034;-79
2022/06/25 09:08:09;;;;;;;7.20;2.50;;;;;;;26.98;51.17;100125.84;1754372;80;21037;-79
2022/06/25 09:10:35;;;;;;;2.67;2.30;;;;;;;27.14;50.73;100124.47;1756329;81;21021;-79
2022/06/25 09:13:06;;;;;;;27.40;4.95;;;;;;;27.29;50.54;100135.91;1754796;80;20985;-78
2022/06/25 09:15:45;;;;;;;14.15;4.50;;;;;;;27.45;50.09;100138.55;1755522;81;21105;-79
2022/06/25 09:18:15;;;;;;;4.65;2.00;;;;;;;27.62;49.58;100138.51;1770898;81;21014;-79
2022/06/25 09:21:09;;;;;;;4.92;2.20;;;;;;;27.74;49.14;100132.58;1762655;80;21561;-77
2022/06/25 09:24:00;;;;;;;35.83;4.67;;;;;;;27.79;48.36;100137.42;1767545;81;21485;-77
2022/06/25 09:26:27;;;;;;;12.07;2.87;;;;;;;27.72;48.21;100137.80;1756692;81;21082;-77
2022/06/25 09:28:56;;;;;;;15.13;2.67;;;;;;;27.75;48.33;100141.49;1771482;79;21099;-77
2022/06/25 09:31:38;;;;;;;28.38;4.15;;;;;;;27.91;48.08;100140.62;1759935;80;20899;-78
2022/06/25 09:34:08;;;;;;;5.37;2.42;;;;;;;28.08;47.87;100140.86;1780741;80;21506;-77
2022/06/25 09:36:36;;;;;;;2.83;2.00;;;;;;;28.17;47.15;100137.09;1781205;80;20981;-78
2022/06/25 09:39:04;;;;;;;15.78;3.12;;;;;;;28.25;47.08;100137.05;1780967;80;21030;-76
2022/06/25 09:41:53;;;;;;;2.67;1.87;;;;;;;28.35;46.70;100140.88;1781502;80;21135;-75
2022/06/25 09:44:21;;;;;;;3.52;2.00;;;;;;;28.33;46.30;100135.33;1781183;80;21049;-77
2022/06/25 09:47:00;;;;;;;4.55;2.08;;;;;;;28.30;46.18;100140.56;1781057;80;20999;-76
2022/06/25 09:49:27;;;;;;;2.47;1.80;;;;;;;28.30;45.95;100145.12;1766841;80;21036;-77
2022/06/25 09:52:02;;;;;;;3.95;2.25;;;;;;;28.23;45.64;100133.68;1781100;80;20987;-78
2022/06/25 09:54:31;;;;;;;3.15;1.82;;;;;;;28.19;45.54;100128.84;1781345;80;21116;-76
2022/06/25 09:57:00;;;;;;;2.35;2.10;;;;;;;28.26;45.51;100127.09;1780993;80;21030;-77
2022/06/25 09:59:32;;;;;;;2.65;1.90;;;;;;;28.32;45.47;100122.84;1781011;80;22845;-79
2022/06/25 10:02:03;;;;;;;2.37;2.17;;;;;;;28.49;45.51;100131.69;1765767;80;21066;-78
2022/06/25 10:04:31;;;;;;;3.67;2.05;;;;;;;28.63;45.32;100132.28;1767331;80;21007;-79
2022/06/25 10:07:03;;;;;;;5.47;2.25;;;;;;;28.76;45.12;100128.44;1781146;80;21201;-78
2022/06/25 10:09:32;;;;;;;2.87;2.00;;;;;;;28.93;45.03;100135.04;1780864;80;21488;-78
2022/06/25 10:12:00;;;;;;;3.33;1.90;;;;;;;28.97;44.45;100123.71;1775998;80;22038;-78
2022/06/25 10:14:28;;;;;;;2.85;2.22;;;;;;;29.01;44.15;100130.41;1772477;80;21009;-78
2022/06/25 10:16:55;;;;;;;6.08;2.15;;;;;;;29.02;43.96;100128.57;1781064;80;20990;-78
2022/06/25 10:19:25;;;;;;;2.60;1.95;;;;;;;29.02;43.80;100129.91;1780911;80;21108;-78
2022/06/25 10:21:53;;;;;;;11.63;2.80;;;;;;;29.01;43.75;100133.10;1755377;80;21033;-77
2022/06/25 10:24:21;;;;;;;4.37;2.00;;;;;;;29.16;43.95;100130.48;1741696;80;21080;-78
2022/06/25 10:26:48;;;;;;;4.25;2.22;;;;;;;29.35;43.50;100129.10;1748565;80;21021;-77
2022/06/25 10:29:28;;;;;;;4.55;2.25;;;;;;;29.55;43.35;100130.20;1766127;80;21045;-77
2022/06/25 10:32:14;;;;;;;4.25;2.10;;;;;;;29.70;43.15;100127.52;1787334;80;21119;-77
2022/06/25 10:34:57;;;;;;;2.87;2.00;;;;;;;29.96;43.40;100122.97;1781021;80;21546;-81
2022/06/25 10:37:25;;;;;;;3.60;2.30;;;;;;;30.24;42.76;100120.92;1752040;80;21047;-77
2022/06/25 10:39:56;;;;;;;6.42;2.30;;;;;;;30.48;42.16;100117.51;1741466;80;21083;-79
2022/06/25 10:45:24;;;;;;;4.33;1.95;;;;;;;30.88;40.88;100118.73;1751700;80;21917;-78
2022/06/25 10:47:58;;;;;;;14.33;2.42;;;;;;;30.98;40.58;100097.56;1779933;78;21033;-77
2022/06/25 10:50:31;;;;;;;5.40;2.22;;;;;;;31.26;40.64;100107.53;1784689;80;21056;-76
2022/06/25 10:53:12;;;;;;;23.80;3.22;;;;;;;31.67;40.39;100097.27;1783291;78;21081;-78
2022/06/25 10:55:50;;;;;;;4.60;1.92;;;;;;;32.05;40.24;100109.01;1788009;80;21029;-77
2022/06/25 10:58:22;;;;;;;4.03;2.00;;;;;;;32.44;39.58;100094.69;1745420;81;21074;-82
2022/06/25 11:01:01;;;;;;;3.05;1.70;;;;;;;32.67;39.18;100097.02;1729088;82;21011;-85
2022/06/25 11:03:37;;;;;;;3.42;1.82;;;;;;;32.89;38.62;100105.25;1742918;81;21012;-79
2022/06/25 11:06:29;;;;;;;4.08;2.00;;;;;;;33.10;38.05;100097.44;1749798;81;21056;-79
2022/06/25 11:09:10;;;;;;;5.05;1.80;;;;;;;33.17;37.50;100097.94;1729486;81;21112;-82
2022/06/25 11:11:40;;;;;;;2.15;1.87;;;;;;;33.14;37.27;100098.36;1731261;81;22177;-82
2022/06/25 11:14:21;;;;;;;3.12;1.85;;;;;;;32.69;36.86;100102.25;1734232;82;21062;-84
2022/06/25 11:16:51;;;;;;;2.22;1.98;;;;;;;32.53;37.15;100108.91;1724777;83;21056;-85
2022/06/25 11:19:20;;;;;;;2.42;1.98;;;;;;;32.32;36.80;100105.31;1725905;83;21064;-84
2022/06/25 11:21:49;;;;;;;3.55;2.22;;;;;;;31.98;36.99;100100.34;1726164;83;21066;-84
2022/06/25 11:24:24;;;;;;;2.77;1.87;;;;;;;31.84;36.88;100103.98;1726311;83;21735;-83
2022/06/25 11:29:51;;;;;;;6.33;2.10;;;;;;;31.68;37.03;100100.30;1725416;82;21066;-83
2022/06/25 11:32:27;;;;;;;2.60;1.90;;;;;;;31.59;37.08;100090.66;1705208;83;21090;-86
2022/06/25 11:34:58;;;;;;;4.58;2.47;;;;;;;31.75;37.18;100096.56;1724875;83;21524;-91
2022/06/25 11:37:26;;;;;;;5.22;2.45;;;;;;;31.57;37.25;100105.77;1704029;83;21079;-86
2022/06/25 11:39:54;;;;;;;3.17;1.85;;;;;;;31.31;36.89;100105.06;1715557;82;27568;-86
2022/06/25 11:42:22;;;;;;;4.30;2.35;;;;;;;31.30;37.00;100102.88;1725839;83;21476;-81
2022/06/25 11:44:54;;;;;;;4.42;1.70;;;;;;;31.68;36.99;100107.08;1726069;83;21055;-82
2022/06/25 11:47:27;;;;;;;2.58;1.90;;;;;;;31.93;36.94;100107.41;1708406;83;22141;-78
2022/06/25 11:49:55;;;;;;;2.65;1.90;;;;;;;32.28;36.68;100097.79;1725240;83;21110;-85
2022/06/25 11:52:25;;;;;;;2.67;2.08;;;;;;;32.61;36.43;100103.28;1714014;83;21490;-85
2022/06/25 11:54:54;;;;;;;7.72;1.98;;;;;;;32.87;35.81;100098.39;1722543;83;21517;-91
2022/06/25 11:57:26;;;;;;;3.45;1.77;;;;;;;33.18;35.48;100100.45;1723724;83;21051;-79